SBOSBO NCL / EGNT
Speedbird OnlineSpeedbird Online NCL / EGNT

Newcastle Airport
12:35 16.4°C

Location Newcastle, United Kingdom
Latitude: 55.037498474121094
Longitude: -1.6916699409484863
Local Time 12:35 on 17 Jun 2024
UTC +1 hours (Europe/London)
METAR EGNT 171120Z 32006KT 250V050 9999 SCT030 17/09 Q1007
TAF TAF EGNT 171057Z 1712/1812 31005KT 9999 SCT025 TEMPO 1712/1722 7000 SHRA PROB30 TEMPO 1712/1719 4000 +SHRA PROB30 TEMPO 1804/1807 BKN010 PROB40 TEMPO 1809/1812 6000 SHRA
Weather As Of 17 Jun 2024 12:35
Description Scattered clouds
Wind 11 km/h from North-West (320°)
Cloud Cover 40%
Precipitation Rain: none, Snow: none
Sunrise 04:26
Sunset 21:48
NOTAM 16 active NOTAM
Rotations During the last 90 days there were
416 flights from LHR
1 flights from NCL
416 flights to LHR
1 flights to NCL
Lounges Aspire Lounge , Main Terminal
Web Airport Website | Wikipedia
Codes IATA: NCL
ICAO: EGNT
Altitude 81 Meter / 266 Feet
Distance 410 KM / 255 Miles
from London.
Runways
RunwayLength (m)Surface
072329Asphalt
252329Asphalt
Radio
TypeDescriptionFrequency
APPAPP124.375
ATISATIS118.375
GNDGND121.725
ILSRunway 07/25 ILS111.5
TWRTWR119.7
Live ATC



Support Speedbird Online

© 2017-2024 Speedbird Online